ETEB 250656Z AUTO 12006KT 9999 CLR 12/05 A2988 RMK AO2 SLP128 T01220051 $ ETIK 250656Z AUTO 13008KT 8000 HZ CLR 14/05 A2988 RMK AO2 SLP117 T01430054 $ EDDE 250750Z 09004KT 050V140 CAVOK 15/06 Q1012 NOSIG EDDF 250750Z 09003KT 010V140 CAVOK 14/06 Q1010 NOSIG ETIC 250656Z AUTO 00000KT 9999 CLR 12/06 A2990 RMK AO2 SLP120 T01200056 $ EDQM 250720Z 11007KT CAVOK 13/03 Q1013 ETIH 250656Z AUTO 14003KT 9999 CLR 14/07 A2992 RMK AO2 SLP124 T01360067 $ ETSI 250720Z 07004KT 9999 FEW250 14/06 Q1012 BLU+BLU+ EDDP 250750Z 18009KT CAVOK 17/05 Q1013 NOSIG EDDM 250750Z 09008KT 060V120 CAVOK 16/05 Q1012 NOSIG ETSN 250720Z 06005KT 9999 FEW230 14/06 Q1012 BLU+BLU+ ETHN 250720Z 14015KT 9999 FEW130 14/05 Q1010 BLU+BLU+ EDDN 250750Z 12009KT CAVOK 16/04 Q1012 NOSIG EDDS 250750Z 08007KT 050V130 CAVOK 16/06 Q1009 NOSIG

METAR Messwerte

Klicken Sie auf einen Ort, um die 36h-Historie abzurufen

Ort
m ü. NN
Zeit Temperatur Taupunkt Rel.
Luftfeuchte
Luftdruck:
Altimeter
NN
Station
Wind in Beaufort
(Knoten)
Sichtweite
(Meter)
Wolken
(Meter über Grund)
Wettererscheinung
Ansbach
467
Do 25.04. 08:5612562 %1012
1013
957
OSO 2 (6)>= 10000  
Bad Windsheim / Illesheim
325
Do 25.04. 08:5614555 %1012
1012
974
SO 3 (8)8000 Dunst
Erfurt-Bindersleben
323
Do 25.04. 09:5015655 %1012
1012
974
O 2 (4)
NO - SO
>= 10000Nicht signifikant 
Frankfurt
113
Do 25.04. 09:5014658 %1010
1010
997
O 2 (3)
N - SO
>= 10000Nicht signifikant 
Grafenwöhr
415
Do 25.04. 08:5612667 %1013
1014
964
Windstill>= 10000  
Hof
568
Do 25.04. 09:2013351 %1013
1013
947
OSO 3 (7)>= 10000Nicht signifikant 
Hohenfels
442
Do 25.04. 08:5614763 %1013
1013
961
SO 2 (3)>= 10000  
Ingolstadt
370
Do 25.04. 09:2014658 %1012
1012
968
ONO 2 (4)>= 10000Leicht bewölkt (7600) 
Leipzig-Schkeuditz
149
Do 25.04. 09:5017545 %1013
1013
995
S 3 (9)>= 10000Nicht signifikant 
München
447
Do 25.04. 09:5016548 %1012
1012
959
O 3 (8)
ONO - OSO
>= 10000Nicht signifikant 
Neuburg/Donau
387
Do 25.04. 09:2014658 %1012
1012
966
ONO 2 (5)>= 10000Leicht bewölkt (7000) 
Niederstetten
473
Do 25.04. 09:2014555 %1010
1010
955
SO 4 (15)>= 10000Leicht bewölkt (4000) 
Nürnberg
312
Do 25.04. 09:5016445 %1012
1012
975
OSO 3 (9)>= 10000Nicht signifikant 
Stuttgart
419
Do 25.04. 09:5016651 %1009
1009
960
O 3 (7)
NO - SO
>= 10000Nicht signifikant 

Altimeter: Einstellung am Altimeter (Höhenmesser), die Höhe 0 muss auf diesen Luftdruckwert zeigen, damit das Gerät die Stationshöhe richtig anzeigt.

NN: Luftdruck reduziert auf "Normal Null", auf Meereshöhe, dieser von der Temperatur abhängige Wert wird bisweilen unkorrekt einfach als "Luftdruck" bezeichnet. Eigentlich nur eine fiktive Größe, die es erlaubt, Stationen auf unterschiedlichen Höhen miteinander zu vergleichen.

Station: Realer Luftdruck an der Station.